Portada
METAR-TAF:

METAR-TAF

Aeroports :

Sainte-Marie, Madagascar

latitud: 17-05S, longitud: 049-49E, altitud: 2 m

Observació

L'informe es va fer fa 7 hores i 46 minuts, a les 15:00 UTC
Vent 10 kt del Sud
Temperatura 25°C
Humitat 65%
Pressió 1019 hPa
Visibilitat 10 km o més
Núvols disperses a una alçada de 1700 ft
Cel ennuvolat a una alçada de 4000 ft

METAR: FMMS 191500Z 17010KT 9999 SCT017 BKN040 25/18 Q1019

Hora: 01:46 (22:46 UTC)


TAF: manca

Observacions i pronòstics meteorològics de més de 4000 aeroports (METAR i TAF).

Les estacions disponibles són els punts grocs i vermells al mapa.

Posi el ratolí al punt desitjat per veure el nom de l'estació.

Feu clic per veure les observacions i els pronòstics meteorològics.

Per canviar el mapa: feu clic els botons verds amb una creu de color negre per apropar; al botó verd amb un guió per allunyar la imatge; o en les fletxes verdes per a mapes adjacents.


METAR-TAF: